createdAt,value
2024-01-24T00:01:02.020Z,62.21
2024-01-24T00:03:28.825Z,63.18
2024-01-24T00:05:55.395Z,63.45
2024-01-24T00:08:21.805Z,64.25
2024-01-24T00:10:48.426Z,64.19
2024-01-24T00:13:14.846Z,64.20
2024-01-24T00:15:41.416Z,64.19
2024-01-24T00:18:07.952Z,64.46
2024-01-24T00:20:34.408Z,64.15
2024-01-24T00:23:00.824Z,64.26
2024-01-24T00:25:27.305Z,64.55
2024-01-24T00:27:53.734Z,64.76
2024-01-24T00:30:20.205Z,64.64
2024-01-24T00:32:46.700Z,64.72
2024-01-24T00:35:13.157Z,64.70
2024-01-24T00:37:39.628Z,64.58
2024-01-24T00:40:07.608Z,63.99
2024-01-24T00:42:34.100Z,63.52
2024-01-24T00:45:00.687Z,63.47
2024-01-24T00:47:27.219Z,62.63
2024-01-24T00:49:53.669Z,63.19
2024-01-24T00:52:20.117Z,63.93
2024-01-24T00:54:46.962Z,63.95
2024-01-24T00:57:13.531Z,64.35
2024-01-24T00:59:39.989Z,62.91
2024-01-24T01:02:06.424Z,63.31
2024-01-24T01:04:33.034Z,63.16
2024-01-24T01:06:59.510Z,63.61
2024-01-24T01:09:25.954Z,62.71
2024-01-24T01:11:52.437Z,60.84
2024-01-24T01:14:18.955Z,59.91
2024-01-24T01:16:45.363Z,58.48
2024-01-24T01:19:11.973Z,57.70
2024-01-24T01:21:41.308Z,55.70
2024-01-24T01:24:09.471Z,55.27
2024-01-24T01:26:36.279Z,55.64
2024-01-24T01:29:03.067Z,54.59
2024-01-24T01:31:29.557Z,54.56
2024-01-24T01:33:56.868Z,54.23
2024-01-24T01:36:23.996Z,54.52
2024-01-24T01:38:51.101Z,54.37
2024-01-24T01:41:18.537Z,53.95
2024-01-24T01:43:45.621Z,54.19
2024-01-24T01:46:21.312Z,54.39
2024-01-24T01:48:50.716Z,54.90
2024-01-24T01:51:18.692Z,55.21
2024-01-24T01:53:46.951Z,55.54
2024-01-24T01:56:16.768Z,55.39
2024-01-24T01:58:45.118Z,55.34
2024-01-24T02:01:12.185Z,55.46
2024-01-24T02:03:39.126Z,56.07
2024-01-24T02:06:05.953Z,55.68
2024-01-24T02:08:36.464Z,55.85
2024-01-24T02:11:04.275Z,56.34
2024-01-24T02:13:32.693Z,56.76
2024-01-24T02:16:00.764Z,56.58
2024-01-24T02:18:27.481Z,56.93
2024-01-24T02:20:53.987Z,56.79
2024-01-24T02:23:23.390Z,56.88
2024-01-24T02:25:51.098Z,56.98
2024-01-24T02:28:17.744Z,56.69
2024-01-24T02:30:44.270Z,57.20
2024-01-24T02:33:11.029Z,57.75
2024-01-24T02:35:37.816Z,58.13
2024-01-24T02:38:04.474Z,58.61
2024-01-24T02:40:30.909Z,58.97
2024-01-24T02:42:57.391Z,59.80
2024-01-24T02:45:23.990Z,59.45
2024-01-24T02:47:50.795Z,60.19
2024-01-24T02:50:17.319Z,60.99
2024-01-24T02:52:43.851Z,61.35
2024-01-24T02:55:18.133Z,62.07
2024-01-24T02:57:45.221Z,62.20
2024-01-24T03:00:13.934Z,62.42
2024-01-24T03:02:41.061Z,62.11
2024-01-24T03:05:09.923Z,62.20
2024-01-24T03:07:37.571Z,62.21
2024-01-24T03:10:07.305Z,62.12
2024-01-24T03:12:34.153Z,62.05
2024-01-24T03:15:00.878Z,62.46
2024-01-24T03:17:27.363Z,62.71
2024-01-24T03:19:53.997Z,61.99
2024-01-24T03:22:21.219Z,62.09
2024-01-24T03:24:47.774Z,62.21
2024-01-24T03:27:14.271Z,62.77
2024-01-24T03:29:42.144Z,62.73
2024-01-24T03:32:08.565Z,62.21
2024-01-24T03:34:35.065Z,62.02
2024-01-24T03:37:01.587Z,61.96
2024-01-24T03:39:28.962Z,62.05
2024-01-24T03:41:55.429Z,62.94
2024-01-24T03:44:21.868Z,62.68
2024-01-24T03:46:48.367Z,62.62
2024-01-24T03:49:15.964Z,62.43
2024-01-24T03:51:42.629Z,62.40
2024-01-24T03:54:09.130Z,63.22
2024-01-24T03:56:35.598Z,63.75
2024-01-24T03:59:02.108Z,63.81
2024-01-24T04:01:28.757Z,64.73
2024-01-24T04:03:55.813Z,64.73
2024-01-24T04:06:22.523Z,64.85
2024-01-24T04:08:49.006Z,65.30
2024-01-24T04:11:15.538Z,65.68
2024-01-24T04:13:43.489Z,65.61
2024-01-24T04:16:09.983Z,65.77
2024-01-24T04:18:36.584Z,66.00
2024-01-24T04:21:03.275Z,66.19
2024-01-24T04:23:29.687Z,66.64
2024-01-24T04:25:56.760Z,66.86
2024-01-24T04:28:23.293Z,66.36
2024-01-24T04:30:49.807Z,66.17
2024-01-24T04:33:16.376Z,65.87
2024-01-24T04:35:42.882Z,65.48
2024-01-24T04:38:09.518Z,65.23
2024-01-24T04:40:36.011Z,64.72
2024-01-24T04:43:02.537Z,64.68
2024-01-24T04:45:29.160Z,65.57
2024-01-24T04:47:55.742Z,65.42
2024-01-24T04:50:23.042Z,65.67
2024-01-24T04:52:49.766Z,66.40
2024-01-24T04:55:16.554Z,66.10
2024-01-24T04:57:43.185Z,66.27
2024-01-24T05:00:11.006Z,66.77
2024-01-24T05:02:38.637Z,66.82
2024-01-24T05:05:08.038Z,66.45
2024-01-24T05:07:35.658Z,66.14
2024-01-24T05:10:04.497Z,66.72
2024-01-24T05:12:31.582Z,66.40
2024-01-24T05:14:58.461Z,66.75
2024-01-24T05:17:24.937Z,66.82
2024-01-24T05:19:51.392Z,66.04
2024-01-24T05:22:17.832Z,66.97
2024-01-24T05:24:46.233Z,66.95
2024-01-24T05:27:13.879Z,66.81
2024-01-24T05:29:40.583Z,67.07
2024-01-24T05:32:07.506Z,67.33
2024-01-24T05:34:34.006Z,66.68
2024-01-24T05:37:00.911Z,67.00
2024-01-24T05:39:27.514Z,67.03
2024-01-24T05:41:54.072Z,67.09
2024-01-24T05:44:21.276Z,66.90
2024-01-24T05:46:47.727Z,66.77
2024-01-24T05:49:14.388Z,67.08
2024-01-24T05:51:41.960Z,67.23
2024-01-24T05:54:08.393Z,66.87
2024-01-24T05:56:36.391Z,67.42
2024-01-24T05:59:02.843Z,67.56
2024-01-24T06:01:29.480Z,67.75
2024-01-24T06:03:56.149Z,67.87
2024-01-24T06:06:23.066Z,68.14
2024-01-24T06:08:49.653Z,68.27
2024-01-24T06:11:18.009Z,68.28
2024-01-24T06:13:44.957Z,68.12
2024-01-24T06:16:11.568Z,68.49
2024-01-24T06:18:38.104Z,68.98
2024-01-24T06:21:04.808Z,69.33
2024-01-24T06:23:31.238Z,69.58
2024-01-24T06:25:57.684Z,69.69
2024-01-24T06:28:24.124Z,69.74
2024-01-24T06:30:52.513Z,69.85
2024-01-24T06:33:19.110Z,69.93
2024-01-24T06:35:45.631Z,70.07
2024-01-24T06:38:12.074Z,70.10
2024-01-24T06:40:38.499Z,70.19
2024-01-24T06:43:05.003Z,70.80
2024-01-24T06:45:31.490Z,70.71
2024-01-24T06:47:59.045Z,70.78
2024-01-24T06:50:25.732Z,70.92
2024-01-24T06:52:52.356Z,71.00
2024-01-24T06:55:19.078Z,70.67
2024-01-24T06:57:45.776Z,70.71
2024-01-24T07:00:12.769Z,70.38
2024-01-24T07:02:39.317Z,70.62
2024-01-24T07:05:06.706Z,70.89
2024-01-24T07:07:33.735Z,69.99
2024-01-24T07:10:00.390Z,70.64
2024-01-24T07:12:26.994Z,70.85
2024-01-24T07:14:53.888Z,70.86
2024-01-24T07:17:20.765Z,70.80
2024-01-24T07:19:48.021Z,70.61
2024-01-24T07:22:15.210Z,70.64
2024-01-24T07:24:44.569Z,70.60
2024-01-24T07:27:11.122Z,70.52
2024-01-24T07:29:37.587Z,70.49
2024-01-24T07:32:04.820Z,70.52
2024-01-24T07:34:31.342Z,70.38
2024-01-24T07:36:57.864Z,70.25
2024-01-24T07:39:24.467Z,70.22
2024-01-24T07:41:50.918Z,70.31
2024-01-24T07:44:17.363Z,70.67
2024-01-24T07:46:44.467Z,70.38
2024-01-24T07:49:11.712Z,71.02
2024-01-24T07:51:38.937Z,70.57
2024-01-24T07:54:06.057Z,70.92
2024-01-24T07:56:32.699Z,70.56
2024-01-24T07:58:59.641Z,70.79
2024-01-24T08:01:26.306Z,70.61
2024-01-24T08:03:53.364Z,69.75
2024-01-24T08:06:20.181Z,70.21
2024-01-24T08:08:47.043Z,70.57
2024-01-24T08:11:13.592Z,70.09
2024-01-24T08:13:40.073Z,70.03
2024-01-24T08:16:08.838Z,69.82
2024-01-24T08:18:35.454Z,70.23
2024-01-24T08:21:02.820Z,69.72
2024-01-24T08:23:38.281Z,69.76
2024-01-24T08:26:10.948Z,69.60
2024-01-24T08:28:37.471Z,69.73
2024-01-24T08:31:04.572Z,69.50
2024-01-24T08:33:33.560Z,69.06
2024-01-24T08:36:00.434Z,68.96
2024-01-24T08:38:26.996Z,68.52
2024-01-24T08:40:53.487Z,68.78
2024-01-24T08:43:19.913Z,68.75
2024-01-24T08:45:49.566Z,68.42
2024-01-24T08:48:18.975Z,68.26
2024-01-24T08:50:45.621Z,68.08
2024-01-24T08:53:12.076Z,68.09
2024-01-24T08:55:38.881Z,67.69
2024-01-24T08:58:06.032Z,67.65
2024-01-24T09:00:32.644Z,67.50
2024-01-24T09:02:59.714Z,67.67
2024-01-24T09:05:26.832Z,67.18
2024-01-24T09:07:54.118Z,67.44
2024-01-24T09:10:20.916Z,67.72
2024-01-24T09:12:48.404Z,67.71
2024-01-24T09:15:16.410Z,67.12
2024-01-24T09:17:43.122Z,67.26
2024-01-24T09:20:10.721Z,67.06
2024-01-24T09:22:37.810Z,67.68
2024-01-24T09:25:07.943Z,68.12
2024-01-24T09:27:36.043Z,68.23
2024-01-24T09:30:02.730Z,68.54
2024-01-24T09:32:29.265Z,69.21
2024-01-24T09:34:56.164Z,69.81
2024-01-24T09:37:22.876Z,70.21
2024-01-24T09:39:51.760Z,70.43
2024-01-24T09:42:28.999Z,70.86
2024-01-24T09:44:59.714Z,71.43
2024-01-24T09:47:27.135Z,71.88
2024-01-24T09:49:53.941Z,71.36
2024-01-24T09:52:26.099Z,72.05
2024-01-24T09:55:00.189Z,72.23
2024-01-24T09:57:28.263Z,71.84
2024-01-24T09:59:55.520Z,72.83
2024-01-24T10:02:22.605Z,73.29
2024-01-24T10:04:52.241Z,73.75
2024-01-24T10:07:19.982Z,73.70
2024-01-24T10:09:47.906Z,73.63
2024-01-24T10:12:14.579Z,73.13
2024-01-24T10:14:43.995Z,73.20
2024-01-24T10:17:13.285Z,73.04
2024-01-24T10:19:40.570Z,73.15
2024-01-24T10:22:10.571Z,73.15
2024-01-24T10:24:38.085Z,72.52
2024-01-24T10:27:05.551Z,72.03
2024-01-24T10:29:32.295Z,71.37
2024-01-24T10:31:59.998Z,71.59
2024-01-24T10:34:29.965Z,70.71
2024-01-24T10:36:57.187Z,70.83
2024-01-24T10:39:26.491Z,70.51
2024-01-24T10:41:55.668Z,71.00
2024-01-24T10:44:26.219Z,71.70
2024-01-24T10:46:53.245Z,72.17
2024-01-24T10:49:24.404Z,71.71
2024-01-24T10:51:51.848Z,71.47
2024-01-24T10:54:18.542Z,70.59
2024-01-24T10:56:48.257Z,70.47
2024-01-24T10:59:17.013Z,70.47
2024-01-24T11:01:43.535Z,70.45
2024-01-24T11:04:12.796Z,71.19
2024-01-24T11:06:48.155Z,71.02
2024-01-24T11:09:27.788Z,70.87
2024-01-24T11:11:58.675Z,70.67
2024-01-24T11:14:33.280Z,71.15
2024-01-24T11:17:03.345Z,70.68
2024-01-24T11:19:33.393Z,70.59
2024-01-24T11:22:13.259Z,70.99
2024-01-24T11:24:47.145Z,69.96
2024-01-24T11:27:34.083Z,70.03
2024-01-24T11:30:08.306Z,70.11
2024-01-24T11:33:01.029Z,69.95
2024-01-24T11:35:27.640Z,70.07
2024-01-24T11:37:59.553Z,70.29
2024-01-24T11:40:40.359Z,69.86
2024-01-24T11:43:07.314Z,68.81
2024-01-24T11:45:35.411Z,69.02
2024-01-24T11:48:02.347Z,69.00
2024-01-24T11:50:29.094Z,69.81
2024-01-24T11:53:00.394Z,69.31
2024-01-24T11:55:28.899Z,69.31
2024-01-24T11:57:56.064Z,69.46
2024-01-24T12:00:24.263Z,68.42
2024-01-24T12:02:51.218Z,69.28
2024-01-24T12:05:17.971Z,68.61
2024-01-24T12:07:44.536Z,68.95
2024-01-24T12:10:11.119Z,69.26
2024-01-24T12:12:38.424Z,68.78
2024-01-24T12:15:05.913Z,68.77
2024-01-24T12:17:35.847Z,68.65
2024-01-24T12:20:08.786Z,68.59
2024-01-24T12:22:36.264Z,68.52
2024-01-24T12:25:02.802Z,68.45
2024-01-24T12:27:29.584Z,68.87
2024-01-24T12:29:56.382Z,69.06
2024-01-24T12:32:23.300Z,69.36
2024-01-24T12:34:50.154Z,69.28
2024-01-24T12:37:20.726Z,69.47
2024-01-24T12:39:52.306Z,69.50
2024-01-24T12:42:19.102Z,69.39
2024-01-24T12:44:45.720Z,69.55
2024-01-24T12:47:12.733Z,69.20
2024-01-24T12:49:39.483Z,69.33
2024-01-24T12:52:06.272Z,69.23
2024-01-24T12:54:32.804Z,69.34
2024-01-24T12:56:59.449Z,69.15
2024-01-24T12:59:26.008Z,69.88
2024-01-24T13:01:57.082Z,69.44
2024-01-24T13:04:23.648Z,69.46
2024-01-24T13:06:50.419Z,69.04
2024-01-24T13:09:17.191Z,69.27
2024-01-24T13:11:43.682Z,69.70
2024-01-24T13:14:10.825Z,69.08
2024-01-24T13:16:37.292Z,69.32
2024-01-24T13:19:03.801Z,69.38
2024-01-24T13:21:30.343Z,69.00
2024-01-24T13:24:01.533Z,68.94
2024-01-24T13:26:29.218Z,68.67
2024-01-24T13:28:55.921Z,68.09
2024-01-24T13:31:22.670Z,68.45
2024-01-24T13:33:50.588Z,68.17
2024-01-24T13:36:17.983Z,68.41
2024-01-24T13:38:44.761Z,67.79
2024-01-24T13:41:12.613Z,67.85
2024-01-24T13:43:39.155Z,68.02
2024-01-24T13:46:06.598Z,68.60
2024-01-24T13:48:33.262Z,71.53
2024-01-24T13:51:01.109Z,71.55
2024-01-24T13:53:27.589Z,70.67
2024-01-24T13:55:54.084Z,70.19
2024-01-24T13:58:21.186Z,70.12
2024-01-24T14:00:48.323Z,69.92
2024-01-24T14:03:15.724Z,71.02
2024-01-24T14:05:42.835Z,72.20
2024-01-24T14:08:09.555Z,72.82
2024-01-24T14:10:36.068Z,72.53
2024-01-24T14:13:03.124Z,71.07
2024-01-24T14:15:34.725Z,70.81
2024-01-24T14:18:03.730Z,70.67
2024-01-24T14:20:30.260Z,70.50
2024-01-24T14:22:56.990Z,69.84
2024-01-24T14:25:23.426Z,69.48
2024-01-24T14:27:50.075Z,69.76
2024-01-24T14:30:16.755Z,69.45
2024-01-24T14:32:43.313Z,69.10
2024-01-24T14:35:10.053Z,68.98
2024-01-24T14:37:36.890Z,68.91
2024-01-24T14:40:04.135Z,68.80
2024-01-24T14:42:30.790Z,68.74
2024-01-24T14:45:00.142Z,68.44
2024-01-24T14:47:27.046Z,68.97
2024-01-24T14:49:54.030Z,70.23
2024-01-24T14:52:20.598Z,73.35
2024-01-24T14:54:47.044Z,75.22
2024-01-24T14:57:13.606Z,75.58
2024-01-24T14:59:41.456Z,75.69
2024-01-24T15:02:08.216Z,74.71
2024-01-24T15:04:34.773Z,73.96
2024-01-24T15:07:01.447Z,73.50
2024-01-24T15:09:28.446Z,73.04
2024-01-24T15:11:55.856Z,72.80
2024-01-24T15:14:22.401Z,72.63
2024-01-24T15:16:48.794Z,72.54
2024-01-24T15:19:15.540Z,72.31
2024-01-24T15:21:42.325Z,72.48
2024-01-24T15:24:10.069Z,72.49
2024-01-24T15:26:37.300Z,72.17
2024-01-24T15:29:04.241Z,72.49
2024-01-24T15:31:30.729Z,73.08
2024-01-24T15:33:57.382Z,72.81
2024-01-24T15:36:23.935Z,72.97
2024-01-24T15:38:51.273Z,72.75
2024-01-24T15:41:19.991Z,73.01
2024-01-24T15:43:46.747Z,72.99
2024-01-24T15:46:13.782Z,72.49
2024-01-24T15:48:41.585Z,71.61
2024-01-24T15:51:08.875Z,71.88
2024-01-24T15:53:35.451Z,71.74
2024-01-24T15:56:02.803Z,71.79
2024-01-24T15:58:29.746Z,71.60
2024-01-24T16:00:56.235Z,71.55
2024-01-24T16:03:27.085Z,71.59
2024-01-24T16:05:53.708Z,71.38
2024-01-24T16:08:22.757Z,71.74
2024-01-24T16:10:50.538Z,71.77
2024-01-24T16:13:17.440Z,71.63
2024-01-24T16:15:43.974Z,71.79
2024-01-24T16:18:10.869Z,71.74
2024-01-24T16:20:37.330Z,71.56
2024-01-24T16:23:04.269Z,71.90
2024-01-24T16:25:30.787Z,72.55
2024-01-24T16:27:57.324Z,72.32
2024-01-24T16:30:26.619Z,72.65
2024-01-24T16:32:55.298Z,73.03
2024-01-24T16:35:22.135Z,73.26
2024-01-24T16:37:49.064Z,73.32
2024-01-24T16:40:16.510Z,73.25
2024-01-24T16:42:43.063Z,73.10
2024-01-24T16:45:10.359Z,73.16
2024-01-24T16:47:37.010Z,73.12
2024-01-24T16:50:06.680Z,73.09
2024-01-24T16:52:33.209Z,72.91
2024-01-24T16:54:59.735Z,73.13
2024-01-24T16:57:26.335Z,73.15
2024-01-24T16:59:52.791Z,73.25
2024-01-24T17:02:19.260Z,73.26
2024-01-24T17:04:46.826Z,73.45
2024-01-24T17:07:13.613Z,73.22
2024-01-24T17:09:40.987Z,73.69
2024-01-24T17:12:11.080Z,73.87
2024-01-24T17:14:39.239Z,73.87
2024-01-24T17:17:08.119Z,73.66
2024-01-24T17:19:34.594Z,73.98
2024-01-24T17:22:01.231Z,73.59
2024-01-24T17:24:27.735Z,74.26
2024-01-24T17:26:54.546Z,74.52
2024-01-24T17:29:21.025Z,74.17
2024-01-24T17:31:47.884Z,74.65
2024-01-24T17:34:14.516Z,74.05
2024-01-24T17:36:41.321Z,74.44
2024-01-24T17:39:07.907Z,73.92
2024-01-24T17:41:35.338Z,74.08
2024-01-24T17:44:01.976Z,74.33
2024-01-24T17:46:29.167Z,74.28
2024-01-24T17:48:55.736Z,74.28
2024-01-24T17:51:22.734Z,74.54
2024-01-24T17:53:49.488Z,74.20
2024-01-24T17:56:16.164Z,74.08
2024-01-24T17:58:42.763Z,74.13
2024-01-24T18:01:09.406Z,74.30
2024-01-24T18:03:36.691Z,75.64
2024-01-24T18:06:03.431Z,77.21
2024-01-24T18:08:29.960Z,79.51
2024-01-24T18:10:58.345Z,82.89
2024-01-24T18:13:26.055Z,83.47
2024-01-24T18:15:52.606Z,83.97
2024-01-24T18:18:19.682Z,85.90
2024-01-24T18:20:46.144Z,87.63
2024-01-24T18:23:12.618Z,89.72
2024-01-24T18:25:39.063Z,89.91
2024-01-24T18:28:06.453Z,90.44
2024-01-24T18:30:33.029Z,89.71
2024-01-24T18:32:59.535Z,90.27
2024-01-24T18:35:27.691Z,90.38
2024-01-24T18:37:54.093Z,89.75
2024-01-24T18:40:20.491Z,89.96
2024-01-24T18:42:47.452Z,90.07
2024-01-24T18:45:16.641Z,89.74
2024-01-24T18:47:43.404Z,91.10
2024-01-24T18:50:11.032Z,91.42
2024-01-24T18:52:38.359Z,91.43
2024-01-24T18:55:06.001Z,91.19
2024-01-24T18:57:33.020Z,91.40
2024-01-24T18:59:59.999Z,91.82
2024-01-24T19:02:26.887Z,91.60
2024-01-24T19:04:53.775Z,91.46
2024-01-24T19:07:20.577Z,92.39
2024-01-24T19:09:47.423Z,92.61
2024-01-24T19:12:14.270Z,92.35
2024-01-24T19:14:42.952Z,93.28
2024-01-24T19:17:09.815Z,93.56
2024-01-24T19:19:36.407Z,93.98
2024-01-24T19:22:03.734Z,93.07
2024-01-24T19:24:30.589Z,93.96
2024-01-24T19:26:57.701Z,94.49
2024-01-24T19:29:25.312Z,94.21
2024-01-24T19:31:52.040Z,95.23
2024-01-24T19:34:22.078Z,94.69
2024-01-24T19:36:48.682Z,94.59
2024-01-24T19:39:15.596Z,94.12
2024-01-24T19:41:42.057Z,93.62
2024-01-24T19:44:08.527Z,93.84
2024-01-24T19:46:35.365Z,93.79
2024-01-24T19:49:01.980Z,93.89
2024-01-24T19:51:28.943Z,94.09
2024-01-24T19:53:56.321Z,93.64
2024-01-24T19:56:23.048Z,94.24
2024-01-24T19:58:49.542Z,94.03
2024-01-24T20:01:16.098Z,93.39
2024-01-24T20:03:42.647Z,94.22
2024-01-24T20:06:09.170Z,94.27
2024-01-24T20:08:35.792Z,93.22
2024-01-24T20:11:02.547Z,93.31
2024-01-24T20:13:29.037Z,93.52
2024-01-24T20:15:58.464Z,93.26
2024-01-24T20:18:25.549Z,94.18
2024-01-24T20:20:52.046Z,94.47
2024-01-24T20:23:18.474Z,94.45
2024-01-24T20:25:44.961Z,95.05
2024-01-24T20:28:11.544Z,94.91
2024-01-24T20:30:38.075Z,95.11
2024-01-24T20:33:05.563Z,94.87
2024-01-24T20:35:32.622Z,94.65
2024-01-24T20:37:59.943Z,94.13
2024-01-24T20:40:26.502Z,93.45
2024-01-24T20:42:53.106Z,94.47
2024-01-24T20:45:19.582Z,94.28
2024-01-24T20:47:46.223Z,93.35
2024-01-24T20:50:13.637Z,93.07
2024-01-24T20:52:40.364Z,93.27
2024-01-24T20:55:07.207Z,93.30
2024-01-24T20:57:34.557Z,93.19
2024-01-24T21:00:02.491Z,93.26
2024-01-24T21:02:29.131Z,93.90
2024-01-24T21:04:55.749Z,94.47
2024-01-24T21:07:22.590Z,94.40
2024-01-24T21:09:49.133Z,94.99
2024-01-24T21:12:15.632Z,95.14
2024-01-24T21:14:42.361Z,94.90
2024-01-24T21:17:08.856Z,94.00
2024-01-24T21:19:35.378Z,93.52
2024-01-24T21:22:02.052Z,92.96
2024-01-24T21:24:28.617Z,93.54
2024-01-24T21:26:55.094Z,93.44
2024-01-24T21:29:21.556Z,93.61
2024-01-24T21:31:48.079Z,94.01
2024-01-24T21:34:15.986Z,93.66
2024-01-24T21:36:47.881Z,93.43
2024-01-24T21:39:15.866Z,92.48
2024-01-24T21:41:42.254Z,92.13
2024-01-24T21:44:08.672Z,92.18
2024-01-24T21:46:35.178Z,91.66
2024-01-24T21:49:01.715Z,91.32
2024-01-24T21:51:28.133Z,91.61
2024-01-24T21:53:54.629Z,91.50
2024-01-24T21:56:21.105Z,91.24
2024-01-24T21:58:47.648Z,91.14
2024-01-24T22:01:14.646Z,91.28
2024-01-24T22:03:41.250Z,91.12
2024-01-24T22:06:08.158Z,91.38
2024-01-24T22:08:35.036Z,90.90
2024-01-24T22:11:01.724Z,90.68
2024-01-24T22:13:28.162Z,91.34
2024-01-24T22:15:55.601Z,91.75
2024-01-24T22:18:27.728Z,92.03
2024-01-24T22:21:00.061Z,91.93
2024-01-24T22:23:26.467Z,91.54
2024-01-24T22:25:53.061Z,91.78
2024-01-24T22:28:19.833Z,91.88
2024-01-24T22:30:46.563Z,91.39
2024-01-24T22:33:13.289Z,91.27
2024-01-24T22:35:39.958Z,91.89
2024-01-24T22:38:06.491Z,91.23
2024-01-24T22:40:33.523Z,91.25
2024-01-24T22:43:00.372Z,92.03
2024-01-24T22:45:27.165Z,91.62
2024-01-24T22:47:55.525Z,91.38
2024-01-24T22:50:22.228Z,92.10
2024-01-24T22:52:48.782Z,92.16
2024-01-24T22:55:15.524Z,90.94
2024-01-24T22:57:47.856Z,91.02
2024-01-24T23:00:15.600Z,91.49
2024-01-24T23:02:42.015Z,91.24
2024-01-24T23:05:08.844Z,91.16
2024-01-24T23:07:35.555Z,91.18
2024-01-24T23:10:02.181Z,90.88
2024-01-24T23:12:28.653Z,91.02
2024-01-24T23:14:55.441Z,90.67
2024-01-24T23:17:21.977Z,90.94
2024-01-24T23:19:50.933Z,89.82
2024-01-24T23:22:19.337Z,89.81
2024-01-24T23:24:46.480Z,90.07
2024-01-24T23:27:13.365Z,90.71
2024-01-24T23:29:39.791Z,90.71
2024-01-24T23:32:06.937Z,90.57
2024-01-24T23:34:33.502Z,90.63
2024-01-24T23:37:00.321Z,90.91
2024-01-24T23:39:26.884Z,90.56
2024-01-24T23:41:53.329Z,90.86
2024-01-24T23:44:19.802Z,91.10
2024-01-24T23:46:46.510Z,91.64
2024-01-24T23:49:13.143Z,90.42
2024-01-24T23:51:39.912Z,90.83
2024-01-24T23:54:06.768Z,90.25
2024-01-24T23:56:33.177Z,89.69
2024-01-24T23:58:59.592Z,89.12
